Time;durP1;ratioP1;P1;durP2;ratioP2;P2;SDS_P1;SDS_P2;PMS_P1;PMS_P2;Temp;Humidity;BMP_temperature;BMP_pressure;BME280_temperature;BME280_humidity;BME280_pressure;Samples;Min_cycle;Max_cycle;Signal;HPM_P1;HPM_P2
2021/09/11 00:00:14;;;;;;;12.20;6.40;;;17.60;99.90;;;;;;5040975;28;20056;-63
2021/09/11 00:02:40;;;;;;;10.10;6.72;;;17.60;99.90;;;;;;5045054;28;20059;-63
2021/09/11 00:05:06;;;;;;;12.05;7.15;;;17.50;99.90;;;;;;5030844;28;20026;-63
2021/09/11 00:07:33;;;;;;;11.43;6.22;;;17.50;99.90;;;;;;5039296;28;20029;-64
2021/09/11 00:09:59;;;;;;;10.07;6.15;;;17.50;99.90;;;;;;5034855;28;20460;-63
2021/09/11 00:12:24;;;;;;;9.20;5.00;;;17.40;99.90;;;;;;5040704;28;20065;-63
2021/09/11 00:14:50;;;;;;;10.25;5.00;;;17.50;99.90;;;;;;5022999;28;20103;-63
2021/09/11 00:17:15;;;;;;;8.63;4.35;;;17.50;99.90;;;;;;5034838;28;20029;-63
2021/09/11 00:19:41;;;;;;;7.30;4.90;;;17.50;99.90;;;;;;5044702;28;20033;-63
2021/09/11 00:22:06;;;;;;;6.47;5.22;;;17.40;99.90;;;;;;5037517;28;20030;-63
2021/09/11 00:24:32;;;;;;;12.23;5.78;;;17.40;99.90;;;;;;5034838;28;20459;-63
2021/09/11 00:26:57;;;;;;;8.88;5.10;;;17.50;99.90;;;;;;5038205;28;20025;-63
2021/09/11 00:29:24;;;;;;;6.82;4.70;;;17.40;99.90;;;;;;5037331;28;20740;-63
2021/09/11 00:31:50;;;;;;;11.48;4.80;;;17.50;99.90;;;;;;5041927;28;20087;-63
2021/09/11 00:34:15;;;;;;;8.55;4.70;;;17.40;99.90;;;;;;5035798;28;20416;-63
2021/09/11 00:36:41;;;;;;;10.10;5.28;;;17.40;99.90;;;;;;5038774;28;20086;-63
2021/09/11 00:39:07;;;;;;;7.75;4.63;;;17.30;99.90;;;;;;5039003;28;20061;-63
2021/09/11 00:41:34;;;;;;;12.23;5.75;;;17.30;99.90;;;;;;5033767;28;20029;-63
2021/09/11 00:43:59;;;;;;;12.70;7.15;;;17.30;99.90;;;;;;5034731;28;20420;-63
2021/09/11 00:46:25;;;;;;;10.93;6.72;;;17.30;99.90;;;;;;5035509;28;20021;-63
2021/09/11 00:48:51;;;;;;;18.23;7.50;;;17.20;99.90;;;;;;5033848;28;20042;-63
2021/09/11 00:51:17;;;;;;;9.30;6.57;;;17.20;99.90;;;;;;5031924;28;20377;-63
2021/09/11 00:53:43;;;;;;;15.35;6.90;;;17.20;99.90;;;;;;5042272;28;20032;-63
2021/09/11 00:56:09;;;;;;;14.05;6.60;;;17.20;99.90;;;;;;5043147;28;20029;-63
2021/09/11 00:58:35;;;;;;;16.15;6.57;;;17.20;99.90;;;;;;5041241;28;20025;-63
2021/09/11 01:01:01;;;;;;;9.52;5.72;;;17.20;99.90;;;;;;5033490;28;20044;-63
2021/09/11 01:03:26;;;;;;;10.38;5.43;;;17.30;99.90;;;;;;5034637;28;20029;-62
2021/09/11 01:05:52;;;;;;;9.20;5.43;;;17.30;99.90;;;;;;5042597;28;20045;-63
2021/09/11 01:08:18;;;;;;;13.65;5.53;;;17.30;99.90;;;;;;5041833;28;20024;-63
2021/09/11 01:10:44;;;;;;;11.07;5.28;;;17.30;99.90;;;;;;5042800;28;20533;-64
2021/09/11 01:13:10;;;;;;;11.77;5.20;;;17.40;99.90;;;;;;5044676;28;20120;-63
2021/09/11 01:15:38;;;;;;;13.73;5.75;;;17.40;99.90;;;;;;5034819;28;20053;-64
2021/09/11 01:20:42;;;;;;;8.75;5.47;;;17.40;99.90;;;;;;5002363;28;20048;-63
2021/09/11 01:23:08;;;;;;;14.25;5.05;;;17.30;99.90;;;;;;5003480;28;20433;-63
2021/09/11 01:25:33;;;;;;;14.93;5.75;;;17.30;99.90;;;;;;5010907;28;20044;-62
2021/09/11 01:27:59;;;;;;;10.43;5.50;;;17.30;99.90;;;;;;5006138;28;20088;-63
2021/09/11 01:30:25;;;;;;;12.25;6.97;;;17.30;99.90;;;;;;5008344;28;20038;-63
2021/09/11 01:32:51;;;;;;;14.38;6.28;;;17.30;99.90;;;;;;5007924;28;20057;-63
2021/09/11 01:35:18;;;;;;;14.75;5.80;;;17.20;99.90;;;;;;5012020;28;20040;-63
2021/09/11 01:37:43;;;;;;;9.80;6.07;;;17.20;99.90;;;;;;5014220;28;20509;-61
2021/09/11 01:40:10;;;;;;;9.80;6.10;;;17.20;99.90;;;;;;5009582;28;20042;-63
2021/09/11 01:42:36;;;;;;;8.23;6.05;;;17.20;99.90;;;;;;5006362;28;20097;-63
2021/09/11 01:45:08;;;;;;;14.07;6.25;;;17.10;99.90;;;;;;5011374;28;20116;-62
2021/09/11 01:47:34;;;;;;;10.50;6.40;;;17.10;99.90;;;;;;5009925;28;20044;-63
2021/09/11 01:50:00;;;;;;;12.95;6.68;;;17.10;99.90;;;;;;5005024;28;20485;-63
2021/09/11 01:52:26;;;;;;;17.65;5.78;;;17.10;99.90;;;;;;5003536;28;20038;-62
2021/09/11 01:54:51;;;;;;;25.60;8.10;;;17.00;99.90;;;;;;5012056;28;20033;-63
2021/09/11 01:57:17;;;;;;;9.95;7.03;;;17.00;99.90;;;;;;5011974;28;20029;-63
2021/09/11 01:59:44;;;;;;;15.82;6.70;;;17.10;99.90;;;;;;5006602;28;20113;-63
2021/09/11 02:02:09;;;;;;;8.77;6.03;;;17.00;99.90;;;;;;5005927;28;20061;-63
2021/09/11 02:04:36;;;;;;;12.55;5.50;;;17.10;99.90;;;;;;5011766;28;20064;-63
2021/09/11 02:07:03;;;;;;;10.43;6.15;;;17.00;99.90;;;;;;5005957;28;20057;-62
2021/09/11 02:09:30;;;;;;;17.75;6.43;;;17.00;99.90;;;;;;5007258;28;20026;-63
2021/09/11 02:11:56;;;;;;;8.05;6.10;;;17.00;99.90;;;;;;5007236;28;20034;-63
2021/09/11 02:14:21;;;;;;;11.23;6.45;;;17.00;99.90;;;;;;5002731;28;20018;-60
2021/09/11 02:16:47;;;;;;;9.60;5.65;;;17.00;99.90;;;;;;5011302;28;20444;-64
2021/09/11 02:19:13;;;;;;;16.38;7.03;;;17.00;99.90;;;;;;5009360;28;20482;-62
2021/09/11 02:21:39;;;;;;;10.15;5.88;;;17.10;99.90;;;;;;5008014;28;20053;-61
2021/09/11 02:24:05;;;;;;;10.27;6.55;;;17.10;99.90;;;;;;5002576;28;20316;-62
2021/09/11 02:26:31;;;;;;;12.50;6.85;;;17.10;99.90;;;;;;5009969;28;20030;-63
2021/09/11 02:28:57;;;;;;;12.25;6.55;;;17.10;99.90;;;;;;5002656;28;20033;-63
2021/09/11 02:31:22;;;;;;;17.15;7.95;;;17.10;99.90;;;;;;5008243;28;20026;-63
2021/09/11 02:33:48;;;;;;;14.48;8.23;;;17.10;99.90;;;;;;5009034;28;20038;-63
2021/09/11 02:36:14;;;;;;;15.15;8.55;;;17.20;99.90;;;;;;5010856;28;20034;-63
2021/09/11 02:38:40;;;;;;;14.00;8.27;;;17.20;99.90;;;;;;4992859;28;20026;-64
2021/09/11 02:41:05;;;;;;;12.77;8.27;;;17.20;99.90;;;;;;5009381;28;20448;-61
2021/09/11 02:43:31;;;;;;;13.52;8.93;;;17.30;99.90;;;;;;5008068;28;20065;-64
2021/09/11 02:45:57;;;;;;;14.48;9.57;;;17.30;99.90;;;;;;5006223;28;20041;-64
2021/09/11 02:48:23;;;;;;;13.68;9.95;;;17.30;99.90;;;;;;5009907;28;20095;-63
2021/09/11 02:50:48;;;;;;;17.15;9.25;;;17.30;99.90;;;;;;5009424;28;20501;-60
2021/09/11 02:53:14;;;;;;;17.60;9.75;;;17.30;99.90;;;;;;5003109;28;20038;-63
2021/09/11 02:55:39;;;;;;;14.52;7.40;;;17.30;99.90;;;;;;5016741;28;20025;-63
2021/09/11 02:58:05;;;;;;;17.33;8.20;;;17.30;99.90;;;;;;5006707;28;20498;-62
2021/09/11 03:00:30;;;;;;;21.13;8.50;;;17.20;99.90;;;;;;5008862;28;20042;-62
2021/09/11 03:02:56;;;;;;;21.58;9.18;;;17.20;99.90;;;;;;5008106;28;20034;-62
2021/09/11 03:05:22;;;;;;;17.98;9.05;;;17.20;99.90;;;;;;5009963;28;20030;-63
2021/09/11 03:07:47;;;;;;;22.65;9.52;;;17.20;99.90;;;;;;5007441;28;20033;-64
2021/09/11 03:10:13;;;;;;;19.88;10.00;;;17.20;99.90;;;;;;5010533;28;20064;-63
2021/09/11 03:12:38;;;;;;;20.38;10.45;;;17.20;99.90;;;;;;5007090;28;20051;-63
2021/09/11 03:15:05;;;;;;;16.52;9.77;;;17.20;99.90;;;;;;5015233;28;20030;-62
2021/09/11 03:17:30;;;;;;;18.92;10.10;;;17.20;99.90;;;;;;5008485;28;20034;-63
2021/09/11 03:19:56;;;;;;;18.08;9.55;;;17.30;99.90;;;;;;4994747;28;20038;-64
2021/09/11 03:22:22;;;;;;;24.90;10.52;;;17.30;99.90;;;;;;5008094;28;20030;-63
2021/09/11 03:24:47;;;;;;;21.80;9.63;;;17.30;99.90;;;;;;5009213;28;20030;-63
2021/09/11 03:27:13;;;;;;;25.35;12.15;;;17.30;99.90;;;;;;5007930;28;20485;-63
2021/09/11 03:29:38;;;;;;;22.15;11.68;;;17.40;99.90;;;;;;5009455;28;20030;-64
2021/09/11 03:32:04;;;;;;;23.95;14.80;;;17.40;99.90;;;;;;5007091;28;20046;-62
2021/09/11 03:34:30;;;;;;;21.52;12.30;;;17.40;99.90;;;;;;5010152;28;20513;-61
2021/09/11 03:36:56;;;;;;;19.52;11.98;;;17.40;99.90;;;;;;5011769;28;20033;-63
2021/09/11 03:39:22;;;;;;;26.02;13.27;;;17.40;99.90;;;;;;5009585;28;20048;-62
2021/09/11 03:41:48;;;;;;;23.50;12.82;;;17.40;99.90;;;;;;5010350;28;20458;-63
2021/09/11 03:44:14;;;;;;;26.75;14.70;;;17.40;99.90;;;;;;5009233;28;20029;-62
2021/09/11 03:46:39;;;;;;;26.13;15.20;;;17.40;99.90;;;;;;5009364;28;20026;-63
2021/09/11 03:49:05;;;;;;;28.23;14.40;;;17.40;99.90;;;;;;5016486;28;20038;-63
2021/09/11 03:51:31;;;;;;;30.75;16.10;;;17.40;99.90;;;;;;5008532;28;20097;-63
2021/09/11 03:53:57;;;;;;;30.48;16.23;;;17.50;99.90;;;;;;5005302;28;20041;-63
2021/09/11 03:56:23;;;;;;;30.00;17.17;;;17.50;99.90;;;;;;5008767;28;20042;-62
2021/09/11 03:58:48;;;;;;;29.13;15.02;;;17.60;99.90;;;;;;5007174;28;20120;-63
2021/09/11 04:01:14;;;;;;;29.63;15.48;;;17.60;99.90;;;;;;5004045;28;20103;-62
2021/09/11 04:03:39;;;;;;;41.33;21.67;;;17.60;99.90;;;;;;5006452;28;20040;-62
2021/09/11 04:06:05;;;;;;;38.90;24.48;;;17.60;99.90;;;;;;5009966;28;20045;-63
2021/09/11 04:08:31;;;;;;;37.00;22.38;;;17.60;99.90;;;;;;5006629;28;20026;-63
2021/09/11 04:11:00;;;;;;;46.78;24.88;;;17.70;99.90;;;;;;5002710;28;20038;-63
2021/09/11 04:13:26;;;;;;;33.72;21.67;;;17.70;99.90;;;;;;5004866;28;20076;-63
2021/09/11 04:15:52;;;;;;;37.70;23.05;;;17.80;99.90;;;;;;5009587;28;20029;-62
2021/09/11 04:18:17;;;;;;;35.63;20.25;;;17.80;99.90;;;;;;5007979;28;20018;-63
2021/09/11 04:20:43;;;;;;;30.85;18.90;;;17.80;99.90;;;;;;5008549;28;20494;-61
2021/09/11 04:23:08;;;;;;;29.60;17.83;;;17.80;99.90;;;;;;5006776;28;20048;-63
2021/09/11 04:25:34;;;;;;;29.85;18.50;;;17.90;99.90;;;;;;5008890;28;20033;-62
2021/09/11 04:28:00;;;;;;;24.45;16.48;;;17.90;99.90;;;;;;5008377;28;20041;-63
2021/09/11 04:30:26;;;;;;;26.67;17.38;;;17.90;99.90;;;;;;5003545;28;20108;-63
2021/09/11 04:32:51;;;;;;;24.70;15.95;;;17.90;99.90;;;;;;5005193;28;20520;-63
2021/09/11 04:35:17;;;;;;;27.92;15.73;;;18.00;99.90;;;;;;5020711;28;20026;-62
2021/09/11 04:37:42;;;;;;;26.60;15.20;;;18.00;99.90;;;;;;5023104;28;20156;-63
2021/09/11 04:40:08;;;;;;;28.15;16.13;;;18.00;99.90;;;;;;5018504;28;20034;-62
2021/09/11 04:42:34;;;;;;;23.55;14.60;;;18.00;99.90;;;;;;5012679;28;20037;-63
2021/09/11 04:45:00;;;;;;;22.50;14.70;;;18.00;99.90;;;;;;5020270;28;20033;-63
2021/09/11 04:47:26;;;;;;;24.48;13.55;;;18.00;99.90;;;;;;5009230;28;20068;-63
2021/09/11 04:49:51;;;;;;;24.17;13.45;;;18.00;99.90;;;;;;5009522;28;20383;-63
2021/09/11 04:52:17;;;;;;;20.63;12.68;;;18.00;99.90;;;;;;5011147;28;20528;-63
2021/09/11 04:54:42;;;;;;;25.67;12.00;;;18.00;99.90;;;;;;5021000;28;20018;-63
2021/09/11 04:57:08;;;;;;;21.42;11.10;;;18.00;99.90;;;;;;5022168;28;20118;-62
2021/09/11 04:59:33;;;;;;;17.05;10.63;;;18.00;99.90;;;;;;5012263;28;20040;-62
2021/09/11 05:01:59;;;;;;;21.35;12.43;;;18.00;99.90;;;;;;5011379;28;20052;-60
2021/09/11 05:04:25;;;;;;;22.85;12.90;;;17.90;99.90;;;;;;5008045;28;20085;-63
2021/09/11 05:06:50;;;;;;;141.77;30.30;;;17.90;99.90;;;;;;5017311;28;20069;-58
2021/09/11 05:09:16;;;;;;;32.08;12.23;;;17.90;99.90;;;;;;5005832;28;20027;-61
2021/09/11 05:11:41;;;;;;;24.60;11.55;;;17.80;99.90;;;;;;5011001;28;20018;-61
2021/09/11 05:14:07;;;;;;;17.40;9.55;;;17.80;99.90;;;;;;5024525;28;20439;-61
2021/09/11 05:16:33;;;;;;;19.45;10.68;;;17.90;99.90;;;;;;5019341;28;20453;-61
2021/09/11 05:18:58;;;;;;;30.45;11.05;;;17.80;99.90;;;;;;5014843;28;20120;-56
2021/09/11 05:21:24;;;;;;;20.40;9.52;;;17.80;99.90;;;;;;5009138;28;20482;-59
2021/09/11 05:23:49;;;;;;;14.63;9.98;;;17.80;99.90;;;;;;5014507;28;20057;-61
2021/09/11 05:26:15;;;;;;;20.40;10.68;;;17.80;99.90;;;;;;5020024;28;20057;-57
2021/09/11 05:28:40;;;;;;;17.67;9.38;;;17.80;99.90;;;;;;5011912;28;20056;-58
2021/09/11 05:31:06;;;;;;;18.98;10.25;;;17.80;99.90;;;;;;5013532;28;20065;-60
2021/09/11 05:33:32;;;;;;;15.57;9.77;;;17.80;99.90;;;;;;5008754;28;20030;-61
2021/09/11 05:35:57;;;;;;;18.25;10.15;;;17.90;99.90;;;;;;5011741;28;20108;-59
2021/09/11 05:38:23;;;;;;;15.93;8.75;;;17.90;99.90;;;;;;5013173;28;20497;-60
2021/09/11 05:40:48;;;;;;;13.48;9.23;;;17.90;99.90;;;;;;5010762;28;20029;-60
2021/09/11 05:43:14;;;;;;;16.10;10.52;;;18.00;99.90;;;;;;5005709;28;20041;-55
2021/09/11 05:45:40;;;;;;;23.63;10.27;;;17.90;99.90;;;;;;5008635;28;20057;-55
2021/09/11 05:48:06;;;;;;;22.85;9.60;;;17.90;99.90;;;;;;5009773;28;20108;-57
2021/09/11 05:50:33;;;;;;;18.95;8.40;;;17.90;99.90;;;;;;5007316;28;20034;-61
2021/09/11 05:52:58;;;;;;;19.15;8.57;;;17.90;99.90;;;;;;5006980;28;20034;-61
2021/09/11 05:55:24;;;;;;;14.95;7.97;;;18.00;99.90;;;;;;5009622;28;20026;-61
2021/09/11 05:57:49;;;;;;;15.80;8.18;;;18.00;99.90;;;;;;5012593;28;20505;-62
2021/09/11 06:00:15;;;;;;;20.30;7.82;;;18.00;99.90;;;;;;5012087;28;20115;-59
2021/09/11 06:02:41;;;;;;;13.90;6.35;;;17.90;99.90;;;;;;5006028;28;20041;-59
2021/09/11 06:05:08;;;;;;;17.13;6.95;;;17.90;99.90;;;;;;5010619;28;20045;-57
2021/09/11 06:07:33;;;;;;;15.63;6.82;;;17.90;99.90;;;;;;5009819;28;20458;-57
2021/09/11 06:10:00;;;;;;;15.13;6.10;;;18.00;99.90;;;;;;5007416;28;20045;-59
2021/09/11 06:12:25;;;;;;;18.60;7.45;;;18.00;99.90;;;;;;5006098;28;20076;-60
2021/09/11 06:14:51;;;;;;;14.80;5.85;;;18.00;99.90;;;;;;5012888;28;20049;-59
2021/09/11 06:17:16;;;;;;;21.30;6.25;;;18.00;99.90;;;;;;5005172;28;20026;-60
2021/09/11 06:19:42;;;;;;;14.18;5.70;;;18.00;99.90;;;;;;5012349;28;20088;-60
2021/09/11 06:22:10;;;;;;;12.70;6.03;;;18.10;99.90;;;;;;5013030;28;20030;-59
2021/09/11 06:24:37;;;;;;;12.60;5.75;;;18.10;99.90;;;;;;5016928;28;20057;-59
2021/09/11 06:27:04;;;;;;;14.32;6.35;;;18.20;99.90;;;;;;5018980;28;20026;-61
2021/09/11 06:29:29;;;;;;;10.25;4.85;;;18.20;99.90;;;;;;5019321;28;20026;-59
2021/09/11 06:31:55;;;;;;;14.98;5.82;;;18.20;99.90;;;;;;5019288;28;20117;-59
2021/09/11 06:34:20;;;;;;;14.18;5.40;;;18.20;99.90;;;;;;5012664;28;20038;-58
2021/09/11 06:36:46;;;;;;;8.02;4.60;;;18.20;99.90;;;;;;5012685;28;20076;-58
2021/09/11 06:39:11;;;;;;;11.13;4.82;;;18.10;99.90;;;;;;5019265;28;20108;-60
2021/09/11 06:41:37;;;;;;;6.60;4.40;;;18.10;99.90;;;;;;5019092;28;20489;-58
2021/09/11 06:44:03;;;;;;;8.82;4.80;;;18.10;99.90;;;;;;5012255;28;20030;-59
2021/09/11 06:46:28;;;;;;;13.57;4.97;;;18.00;99.90;;;;;;5012775;28;20042;-59
2021/09/11 06:48:54;;;;;;;10.48;4.90;;;18.10;99.90;;;;;;5012388;28;20048;-60
2021/09/11 06:51:19;;;;;;;9.38;4.78;;;18.20;99.90;;;;;;5012605;28;20417;-59
2021/09/11 06:53:45;;;;;;;9.85;5.05;;;18.20;99.90;;;;;;5018163;28;20430;-60
2021/09/11 06:56:10;;;;;;;9.20;4.20;;;18.30;99.90;;;;;;5019817;28;20032;-60
2021/09/11 06:58:36;;;;;;;11.70;4.45;;;18.40;99.90;;;;;;5007621;28;20045;-61
2021/09/11 07:01:01;;;;;;;14.55;5.90;;;18.50;99.90;;;;;;5013534;28;20034;-58
2021/09/11 07:03:27;;;;;;;12.48;4.78;;;18.70;99.90;;;;;;5012251;28;20025;-61
2021/09/11 07:05:53;;;;;;;11.68;4.72;;;18.70;99.90;;;;;;5011259;28;20026;-60
2021/09/11 07:08:18;;;;;;;7.75;3.88;;;18.80;99.90;;;;;;5011768;28;20053;-58
2021/09/11 07:10:44;;;;;;;10.15;4.85;;;18.80;99.90;;;;;;5018741;28;20057;-60
2021/09/11 07:13:09;;;;;;;10.98;5.22;;;18.90;99.90;;;;;;5011783;28;20113;-58
2021/09/11 07:15:35;;;;;;;8.18;4.55;;;19.00;99.90;;;;;;5011987;28;20041;-58
2021/09/11 07:18:01;;;;;;;13.52;4.88;;;19.00;99.90;;;;;;5012115;28;20022;-59
2021/09/11 07:20:26;;;;;;;8.63;3.88;;;19.00;99.90;;;;;;5047274;23;20103;-60
2021/09/11 07:22:52;;;;;;;8.75;3.20;;;19.00;99.90;;;;;;5028642;28;20026;-58
2021/09/11 07:25:18;;;;;;;10.13;3.83;;;19.00;99.90;;;;;;5030108;28;20940;-60
2021/09/11 07:27:44;;;;;;;11.45;4.32;;;19.10;99.90;;;;;;5029793;28;20029;-59
2021/09/11 07:30:10;;;;;;;12.93;3.80;;;19.00;99.90;;;;;;5030230;28;20030;-60
2021/09/11 07:32:36;;;;;;;10.93;4.53;;;19.00;99.90;;;;;;5029934;28;20508;-58
2021/09/11 07:35:01;;;;;;;11.38;4.00;;;19.00;99.90;;;;;;5030424;28;20033;-58
2021/09/11 07:37:27;;;;;;;6.53;3.53;;;19.00;99.90;;;;;;5021901;28;20028;-60
2021/09/11 07:39:52;;;;;;;8.15;3.78;;;19.00;99.90;;;;;;5026965;28;20041;-60
2021/09/11 07:42:18;;;;;;;7.10;4.15;;;19.00;99.90;;;;;;5030285;28;20083;-60
2021/09/11 07:44:44;;;;;;;8.90;3.67;;;19.00;99.90;;;;;;5029836;28;20037;-60
2021/09/11 07:47:10;;;;;;;6.00;4.10;;;19.10;99.90;;;;;;5023476;28;20084;-57
2021/09/11 07:49:36;;;;;;;7.32;4.00;;;19.20;99.90;;;;;;5029693;28;20049;-58
2021/09/11 07:52:02;;;;;;;8.35;4.00;;;19.10;99.90;;;;;;5006866;28;20041;-58
2021/09/11 07:54:28;;;;;;;6.43;4.20;;;19.20;99.90;;;;;;5013869;28;20036;-60
2021/09/11 07:56:53;;;;;;;8.18;4.72;;;19.20;99.90;;;;;;5028955;28;20035;-60
2021/09/11 07:59:19;;;;;;;10.07;4.60;;;19.20;99.90;;;;;;5029436;28;20041;-60
2021/09/11 08:01:44;;;;;;;10.30;4.70;;;19.20;99.90;;;;;;5028513;28;20010;-59
2021/09/11 08:04:10;;;;;;;12.57;5.05;;;19.30;99.90;;;;;;5022171;28;20467;-60
2021/09/11 08:06:35;;;;;;;8.30;4.43;;;19.30;99.90;;;;;;5020009;28;20126;-59
2021/09/11 08:09:01;;;;;;;10.98;4.88;;;19.40;99.90;;;;;;5027528;28;20034;-60
2021/09/11 08:11:27;;;;;;;10.63;4.47;;;19.50;99.90;;;;;;5031679;28;20386;-59
2021/09/11 08:13:53;;;;;;;7.82;4.45;;;19.50;99.90;;;;;;5027522;28;20017;-59
2021/09/11 08:16:19;;;;;;;10.50;3.92;;;19.60;99.90;;;;;;5030463;28;20071;-60
2021/09/11 08:18:44;;;;;;;10.00;4.13;;;19.60;99.90;;;;;;5033732;28;20558;-60
2021/09/11 08:21:10;;;;;;;16.83;4.25;;;19.70;99.90;;;;;;5031808;28;20084;-59
2021/09/11 08:23:36;;;;;;;6.07;3.53;;;19.80;99.90;;;;;;5021720;28;20037;-58
2021/09/11 08:26:04;;;;;;;6.05;3.85;;;19.90;99.90;;;;;;5031101;28;20041;-59
2021/09/11 08:28:29;;;;;;;18.67;4.28;;;19.90;99.90;;;;;;5033466;28;20048;-60
2021/09/11 08:30:55;;;;;;;4.95;3.60;;;20.00;99.90;;;;;;5027437;28;20493;-60
2021/09/11 08:33:20;;;;;;;8.18;3.90;;;20.00;99.90;;;;;;5031926;28;20025;-60
2021/09/11 08:35:46;;;;;;;7.95;3.63;;;19.90;99.90;;;;;;5032779;28;20072;-59
2021/09/11 08:38:11;;;;;;;9.93;3.67;;;20.00;99.90;;;;;;5033262;28;20071;-59
2021/09/11 08:40:37;;;;;;;21.17;5.10;;;20.00;99.90;;;;;;5026427;28;20458;-59
2021/09/11 08:43:04;;;;;;;8.15;3.83;;;20.00;99.90;;;;;;5029142;28;20029;-59
2021/09/11 08:45:29;;;;;;;6.88;4.03;;;20.10;99.90;;;;;;5027077;28;20041;-60
2021/09/11 08:47:55;;;;;;;6.63;3.45;;;20.00;99.90;;;;;;5032847;28;20029;-58
2021/09/11 08:50:21;;;;;;;6.20;3.58;;;20.10;99.90;;;;;;5030091;28;20061;-60
2021/09/11 08:52:48;;;;;;;5.43;2.83;;;20.20;99.90;;;;;;5027572;28;20057;-60
2021/09/11 08:55:15;;;;;;;11.60;3.05;;;20.30;99.90;;;;;;5032544;28;20394;-60
2021/09/11 08:58:00;;;;;;;4.90;3.13;;;20.50;99.90;;;;;;5032689;28;20071;-60
2021/09/11 09:00:35;;;;;;;;;;;20.60;99.90;;;;;;5027135;28;20032;-62
2021/09/11 09:03:00;;;;;;;7.88;2.83;;;20.70;99.90;;;;;;5027761;28;19956;-60
2021/09/11 09:05:26;;;;;;;4.35;2.40;;;20.70;99.90;;;;;;5029952;28;20037;-60
2021/09/11 09:07:52;;;;;;;6.85;2.72;;;20.70;99.90;;;;;;5032692;28;20033;-60
2021/09/11 09:10:18;;;;;;;4.25;2.20;;;20.80;99.90;;;;;;5029518;28;20164;-59
2021/09/11 09:12:47;;;;;;;5.22;2.28;;;20.80;99.90;;;;;;5028293;28;20116;-60
2021/09/11 09:15:15;;;;;;;3.30;2.22;;;20.70;99.90;;;;;;5031837;28;20021;-59
2021/09/11 09:17:42;;;;;;;2.63;2.30;;;20.70;99.90;;;;;;5032429;28;20501;-60
2021/09/11 09:20:21;;;;;;;4.82;2.47;;;20.70;99.90;;;;;;5026511;28;20036;-58
2021/09/11 09:22:50;;;;;;;13.55;2.50;;;20.60;99.90;;;;;;5028539;28;20022;-58
2021/09/11 09:25:30;;;;;;;6.30;2.40;;;20.50;99.90;;;;;;5031820;28;20069;-60
2021/09/11 09:28:01;;;;;;;8.75;2.63;;;20.60;99.90;;;;;;5029718;28;20036;-59
2021/09/11 09:30:47;;;;;;;5.68;2.13;;;20.70;99.90;;;;;;5030565;28;20036;-60
2021/09/11 09:33:29;;;;;;;5.57;2.70;;;20.90;99.90;;;;;;5024310;28;20026;-60
2021/09/11 09:35:59;;;;;;;9.90;2.40;;;21.20;99.90;;;;;;5028666;28;20053;-60
2021/09/11 09:38:24;;;;;;;6.28;2.05;;;21.30;99.90;;;;;;5030007;28;20036;-61
2021/09/11 09:40:52;;;;;;;5.70;1.90;;;21.30;99.90;;;;;;5026676;28;20104;-59
2021/09/11 09:43:29;;;;;;;9.63;1.88;;;21.40;99.90;;;;;;5023979;28;20029;-60
2021/09/11 09:46:12;;;;;;;5.18;2.08;;;21.50;99.90;;;;;;5030806;28;20515;-59
2021/09/11 09:48:39;;;;;;;4.88;2.03;;;21.40;99.90;;;;;;5031854;28;20025;-60
2021/09/11 09:51:11;;;;;;;6.43;1.95;;;21.30;99.90;;;;;;5027887;28;20061;-60
2021/09/11 09:53:39;;;;;;;4.20;2.20;;;21.30;99.90;;;;;;5031328;28;20017;-60
2021/09/11 09:56:05;;;;;;;11.05;2.25;;;21.20;99.90;;;;;;5031812;28;20018;-59
2021/09/11 09:58:32;;;;;;;3.53;1.88;;;21.20;99.90;;;;;;5029391;28;20029;-58
2021/09/11 10:00:57;;;;;;;3.58;1.90;;;21.30;99.90;;;;;;5030109;28;20464;-58
2021/09/11 10:03:23;;;;;;;6.85;2.67;;;21.20;99.90;;;;;;5026689;28;20083;-57
2021/09/11 10:05:51;;;;;;;3.83;1.80;;;21.20;99.90;;;;;;5029822;28;20064;-58
2021/09/11 10:08:18;;;;;;;5.68;2.40;;;21.00;99.90;;;;;;5031670;28;20057;-58
2021/09/11 10:10:46;;;;;;;6.35;2.22;;;21.00;99.90;;;;;;5026214;28;20477;-59
2021/09/11 10:13:17;;;;;;;7.13;2.38;;;21.00;99.90;;;;;;5026641;28;20072;-59
2021/09/11 10:16:04;;;;;;;4.95;2.50;;;20.90;99.90;;;;;;5028052;28;20033;-59
2021/09/11 10:18:29;;;;;;;7.93;2.20;;;21.20;99.90;;;;;;5024088;28;20018;-58
2021/09/11 10:21:13;;;;;;;11.60;2.28;;;21.50;99.90;;;;;;5029154;28;20447;-59
2021/09/11 10:23:40;;;;;;;3.38;2.00;;;22.00;99.90;;;;;;5009261;28;20022;-59
2021/09/11 10:26:06;;;;;;;3.67;2.47;;;21.80;99.90;;;;;;5030952;28;20025;-59
2021/09/11 10:28:32;;;;;;;5.75;2.00;;;21.80;99.90;;;;;;5030397;28;20798;-59
2021/09/11 10:31:09;;;;;;;4.05;1.90;;;21.90;99.90;;;;;;5029009;28;20452;-59
2021/09/11 10:33:41;;;;;;;5.20;1.90;;;22.00;99.90;;;;;;5025049;28;20057;-58
2021/09/11 10:36:29;;;;;;;3.35;2.00;;;21.90;99.90;;;;;;5031234;28;20535;-59
2021/09/11 10:39:07;;;;;;;4.15;2.05;;;21.60;99.90;;;;;;5030471;28;20028;-59
2021/09/11 10:41:32;;;;;;;5.15;2.13;;;21.60;99.90;;;;;;5029521;28;20025;-59
2021/09/11 10:44:05;;;;;;;6.97;1.98;;;21.50;99.90;;;;;;5029319;28;20033;-59
2021/09/11 10:46:54;;;;;;;4.07;1.92;;;21.50;99.90;;;;;;5025389;28;20452;-58
2021/09/11 10:49:26;;;;;;;6.72;1.98;;;21.40;99.90;;;;;;5023060;28;20047;-59
2021/09/11 10:52:09;;;;;;;8.23;2.63;;;21.40;99.90;;;;;;5024899;28;20032;-59
2021/09/11 10:54:44;;;;;;;5.40;1.80;;;21.50;99.90;;;;;;5025818;28;20022;-57
2021/09/11 10:57:16;;;;;;;4.45;1.88;;;21.80;99.90;;;;;;5029708;28;20021;-58
2021/09/11 10:59:47;;;;;;;4.32;2.50;;;22.00;99.90;;;;;;5028664;28;20029;-57
2021/09/11 11:02:18;;;;;;;7.47;2.33;;;21.70;99.90;;;;;;5026982;28;20037;-59
2021/09/11 11:04:47;;;;;;;6.40;1.60;;;21.90;99.90;;;;;;5024399;28;20025;-59
2021/09/11 11:07:18;;;;;;;5.13;1.90;;;21.90;99.90;;;;;;5023682;28;20118;-59
2021/09/11 11:09:49;;;;;;;3.58;1.70;;;21.80;99.90;;;;;;5022740;28;20104;-60
2021/09/11 11:12:29;;;;;;;4.88;1.73;;;21.80;99.90;;;;;;5026689;28;20040;-60
2021/09/11 11:15:01;;;;;;;3.95;1.77;;;21.90;99.90;;;;;;5030300;28;20489;-60
2021/09/11 11:17:28;;;;;;;4.53;1.70;;;21.80;99.90;;;;;;5028768;28;20028;-60
2021/09/11 11:19:54;;;;;;;3.50;1.80;;;21.50;99.90;;;;;;5024247;28;20039;-60
2021/09/11 11:22:40;;;;;;;4.20;1.75;;;21.60;99.90;;;;;;5030096;28;20029;-59
2021/09/11 11:25:11;;;;;;;3.38;1.65;;;21.70;99.90;;;;;;5030261;28;20032;-59
2021/09/11 11:27:38;;;;;;;4.75;1.60;;;21.70;99.90;;;;;;5030399;28;20519;-59
2021/09/11 11:30:06;;;;;;;2.28;1.60;;;21.70;99.90;;;;;;5029232;28;20495;-58
2021/09/11 11:32:35;;;;;;;4.65;1.77;;;21.70;99.90;;;;;;5023407;28;20044;-58
2021/09/11 11:35:00;;;;;;;2.58;1.70;;;21.50;99.90;;;;;;5028378;28;20030;-58
2021/09/11 11:37:32;;;;;;;2.47;1.48;;;21.50;99.90;;;;;;5028701;28;20362;-59
2021/09/11 11:40:01;;;;;;;5.57;1.70;;;21.60;99.90;;;;;;5025762;28;20030;-59
2021/09/11 11:42:31;;;;;;;2.00;1.38;;;21.70;99.90;;;;;;5021703;28;20029;-60
2021/09/11 11:44:56;;;;;;;6.60;1.55;;;21.80;99.90;;;;;;5029497;28;20053;-60
2021/09/11 11:47:31;;;;;;;3.83;1.60;;;21.80;99.90;;;;;;5026331;28;20453;-60
2021/09/11 11:49:57;;;;;;;2.42;1.48;;;22.00;99.90;;;;;;5027492;28;20088;-60
2021/09/11 11:52:24;;;;;;;6.97;1.75;;;22.20;99.90;;;;;;5023220;28;20034;-59
2021/09/11 11:54:50;;;;;;;4.60;1.73;;;22.50;99.90;;;;;;5026853;28;20029;-59
2021/09/11 11:57:21;;;;;;;3.83;1.70;;;22.40;99.90;;;;;;5029983;28;20033;-58
2021/09/11 12:00:07;;;;;;;2.97;1.73;;;22.50;99.90;;;;;;5029778;28;20107;-59
2021/09/11 12:02:37;;;;;;;5.47;1.63;;;22.60;99.90;;;;;;5021603;28;20485;-58
2021/09/11 12:05:24;;;;;;;3.88;1.80;;;22.60;99.90;;;;;;5026838;28;20033;-59
2021/09/11 12:07:59;;;;;;;4.40;1.60;;;22.50;99.90;;;;;;5025354;28;20022;-59
2021/09/11 12:10:26;;;;;;;2.28;1.20;;;22.60;99.90;;;;;;5027988;28;20025;-59
2021/09/11 12:12:55;;;;;;;3.75;1.70;;;22.60;99.90;;;;;;5023036;28;20112;-60
2021/09/11 12:15:24;;;;;;;3.92;1.40;;;22.50;99.90;;;;;;5017952;28;20036;-59
2021/09/11 12:18:00;;;;;;;5.50;1.48;;;22.40;99.90;;;;;;5001213;28;20022;-59
2021/09/11 12:20:28;;;;;;;3.20;1.20;;;22.70;99.90;;;;;;5022320;28;20033;-59
2021/09/11 12:23:10;;;;;;;4.88;1.58;;;22.50;99.90;;;;;;5012364;28;20498;-59
2021/09/11 12:26:12;;;;;;;3.42;1.42;;;22.50;99.90;;;;;;5015178;28;20036;-59
2021/09/11 12:28:40;;;;;;;7.63;1.50;;;22.50;99.90;;;;;;5015638;28;20048;-59
2021/09/11 12:31:07;;;;;;;1.67;1.20;;;22.70;99.90;;;;;;5025733;28;20037;-59
2021/09/11 12:33:59;;;;;;;3.88;1.42;;;22.70;99.90;;;;;;5011929;28;20033;-61
2021/09/11 12:36:39;;;;;;;4.80;1.80;;;22.70;99.90;;;;;;4999883;28;20030;-60
2021/09/11 12:39:07;;;;;;;8.32;1.50;;;22.80;99.90;;;;;;5021633;28;20029;-60
2021/09/11 12:41:33;;;;;;;1.88;1.33;;;22.50;99.90;;;;;;5022534;28;20025;-61
2021/09/11 12:44:00;;;;;;;2.05;1.42;;;22.60;99.90;;;;;;5022401;28;20037;-59